sensor_id;sensor_type;location;lat;lon;timestamp;pressure;altitude;pressure_sealevel;temperature;humidity
35435;BME280;21556;55.782;37.528;2023-02-21T00:01:46;97495.16;;;-8.63;100.00
35435;BME280;21556;55.782;37.528;2023-02-21T00:04:31;97498.31;;;-8.67;100.00
35435;BME280;21556;55.782;37.528;2023-02-21T00:07:15;97497.00;;;-8.90;100.00
35435;BME280;21556;55.782;37.528;2023-02-21T00:09:59;97502.72;;;-9.09;100.00
35435;BME280;21556;55.782;37.528;2023-02-21T00:12:43;97498.19;;;-8.54;100.00
35435;BME280;21556;55.782;37.528;2023-02-21T00:15:28;97497.25;;;-8.56;100.00
35435;BME280;21556;55.782;37.528;2023-02-21T00:18:12;97489.84;;;-8.82;100.00
35435;BME280;21556;55.782;37.528;2023-02-21T00:20:56;97487.91;;;-8.86;100.00
35435;BME280;21556;55.782;37.528;2023-02-21T00:23:41;97482.28;;;-8.81;100.00
35435;BME280;21556;55.782;37.528;2023-02-21T00:26:25;97482.78;;;-8.57;100.00
35435;BME280;21556;55.782;37.528;2023-02-21T00:29:10;97478.78;;;-8.83;100.00
35435;BME280;21556;55.782;37.528;2023-02-21T00:31:54;97478.38;;;-9.20;100.00
35435;BME280;21556;55.782;37.528;2023-02-21T00:34:38;97474.50;;;-8.99;100.00
35435;BME280;21556;55.782;37.528;2023-02-21T00:37:22;97476.25;;;-9.27;100.00
35435;BME280;21556;55.782;37.528;2023-02-21T00:40:10;97469.19;;;-9.03;100.00
35435;BME280;21556;55.782;37.528;2023-02-21T00:42:55;97470.47;;;-8.80;100.00
35435;BME280;21556;55.782;37.528;2023-02-21T00:45:43;97475.59;;;-8.79;100.00
35435;BME280;21556;55.782;37.528;2023-02-21T00:48:28;97467.94;;;-9.10;100.00
35435;BME280;21556;55.782;37.528;2023-02-21T00:51:12;97466.53;;;-9.19;100.00
35435;BME280;21556;55.782;37.528;2023-02-21T00:53:56;97459.50;;;-8.79;100.00
35435;BME280;21556;55.782;37.528;2023-02-21T00:56:41;97461.88;;;-8.82;100.00
35435;BME280;21556;55.782;37.528;2023-02-21T00:59:25;97450.69;;;-9.15;100.00
35435;BME280;21556;55.782;37.528;2023-02-21T01:02:10;97449.75;;;-9.17;100.00
35435;BME280;21556;55.782;37.528;2023-02-21T01:04:55;97453.47;;;-9.40;100.00
35435;BME280;21556;55.782;37.528;2023-02-21T01:07:39;97446.91;;;-9.52;100.00
35435;BME280;21556;55.782;37.528;2023-02-21T01:10:23;97447.34;;;-9.44;100.00
35435;BME280;21556;55.782;37.528;2023-02-21T01:13:08;97447.09;;;-9.49;100.00
35435;BME280;21556;55.782;37.528;2023-02-21T01:15:52;97441.06;;;-9.21;100.00
35435;BME280;21556;55.782;37.528;2023-02-21T01:18:39;97443.94;;;-9.45;100.00
35435;BME280;21556;55.782;37.528;2023-02-21T01:21:23;97433.72;;;-9.31;100.00
35435;BME280;21556;55.782;37.528;2023-02-21T01:24:11;97435.63;;;-9.57;100.00
35435;BME280;21556;55.782;37.528;2023-02-21T01:26:57;97440.00;;;-9.84;100.00
35435;BME280;21556;55.782;37.528;2023-02-21T01:29:42;97439.41;;;-9.35;100.00
35435;BME280;21556;55.782;37.528;2023-02-21T01:32:29;97445.44;;;-9.48;100.00
35435;BME280;21556;55.782;37.528;2023-02-21T01:35:14;97442.38;;;-9.72;100.00
35435;BME280;21556;55.782;37.528;2023-02-21T01:37:59;97439.00;;;-9.86;100.00
35435;BME280;21556;55.782;37.528;2023-02-21T01:40:43;97436.84;;;-9.65;100.00
35435;BME280;21556;55.782;37.528;2023-02-21T01:43:28;97429.00;;;-9.55;100.00
35435;BME280;21556;55.782;37.528;2023-02-21T01:46:15;97431.41;;;-10.14;100.00
35435;BME280;21556;55.782;37.528;2023-02-21T01:49:13;97439.16;;;-9.98;100.00
35435;BME280;21556;55.782;37.528;2023-02-21T01:52:00;97427.03;;;-9.59;100.00
35435;BME280;21556;55.782;37.528;2023-02-21T01:54:48;97434.75;;;-10.15;100.00
35435;BME280;21556;55.782;37.528;2023-02-21T01:57:34;97437.28;;;-9.87;100.00
35435;BME280;21556;55.782;37.528;2023-02-21T02:00:19;97436.44;;;-10.01;100.00
35435;BME280;21556;55.782;37.528;2023-02-21T02:03:06;97439.63;;;-10.46;100.00
35435;BME280;21556;55.782;37.528;2023-02-21T02:06:00;97434.41;;;-10.06;100.00
35435;BME280;21556;55.782;37.528;2023-02-21T02:08:45;97439.19;;;-10.26;100.00
35435;BME280;21556;55.782;37.528;2023-02-21T02:12:04;97438.94;;;-10.30;100.00
35435;BME280;21556;55.782;37.528;2023-02-21T02:15:05;97448.44;;;-10.54;100.00
35435;BME280;21556;55.782;37.528;2023-02-21T02:23:48;97438.31;;;-10.26;100.00
35435;BME280;21556;55.782;37.528;2023-02-21T02:26:32;97444.69;;;-10.33;100.00
35435;BME280;21556;55.782;37.528;2023-02-21T02:45:21;97437.34;;;-10.83;100.00
35435;BME280;21556;55.782;37.528;2023-02-21T02:47:54;97444.16;;;-10.55;100.00
35435;BME280;21556;55.782;37.528;2023-02-21T02:50:23;97438.31;;;-10.68;100.00
35435;BME280;21556;55.782;37.528;2023-02-21T02:52:52;97437.06;;;-10.33;100.00
35435;BME280;21556;55.782;37.528;2023-02-21T02:55:40;97430.88;;;-10.38;100.00
35435;BME280;21556;55.782;37.528;2023-02-21T02:58:10;97433.34;;;-10.66;100.00
35435;BME280;21556;55.782;37.528;2023-02-21T03:00:41;97436.69;;;-10.80;100.00
35435;BME280;21556;55.782;37.528;2023-02-21T03:03:45;97438.34;;;-10.94;100.00
35435;BME280;21556;55.782;37.528;2023-02-21T03:11:24;97435.53;;;-11.25;100.00
35435;BME280;21556;55.782;37.528;2023-02-21T03:14:05;97437.38;;;-11.09;100.00
35435;BME280;21556;55.782;37.528;2023-02-21T03:16:39;97437.41;;;-10.96;100.00
35435;BME280;21556;55.782;37.528;2023-02-21T03:19:13;97436.38;;;-10.72;100.00
35435;BME280;21556;55.782;37.528;2023-02-21T03:21:44;97438.22;;;-10.82;100.00
35435;BME280;21556;55.782;37.528;2023-02-21T03:24:13;97434.53;;;-11.01;100.00
35435;BME280;21556;55.782;37.528;2023-02-21T03:26:43;97439.22;;;-11.20;100.00
35435;BME280;21556;55.782;37.528;2023-02-21T03:29:46;97440.28;;;-10.63;100.00
35435;BME280;21556;55.782;37.528;2023-02-21T03:32:21;97437.41;;;-10.41;100.00
35435;BME280;21556;55.782;37.528;2023-02-21T03:34:49;97440.34;;;-10.62;100.00
35435;BME280;21556;55.782;37.528;2023-02-21T03:37:31;97431.69;;;-10.65;100.00
35435;BME280;21556;55.782;37.528;2023-02-21T03:40:27;97428.69;;;-10.60;100.00
35435;BME280;21556;55.782;37.528;2023-02-21T03:42:59;97429.16;;;-10.65;100.00
35435;BME280;21556;55.782;37.528;2023-02-21T03:45:29;97432.28;;;-10.83;100.00
35435;BME280;21556;55.782;37.528;2023-02-21T03:48:15;97424.13;;;-10.92;100.00
35435;BME280;21556;55.782;37.528;2023-02-21T03:50:42;97426.22;;;-10.72;100.00
35435;BME280;21556;55.782;37.528;2023-02-21T03:53:09;97423.47;;;-11.03;100.00
35435;BME280;21556;55.782;37.528;2023-02-21T03:55:36;97435.94;;;-11.32;100.00
35435;BME280;21556;55.782;37.528;2023-02-21T03:58:06;97433.38;;;-11.46;100.00
35435;BME280;21556;55.782;37.528;2023-02-21T04:00:35;97430.09;;;-11.18;100.00
35435;BME280;21556;55.782;37.528;2023-02-21T04:03:01;97425.00;;;-10.92;100.00
35435;BME280;21556;55.782;37.528;2023-02-21T04:05:34;97428.34;;;-10.93;100.00
35435;BME280;21556;55.782;37.528;2023-02-21T04:08:00;97431.22;;;-10.73;100.00
35435;BME280;21556;55.782;37.528;2023-02-21T04:10:26;97431.06;;;-11.16;100.00
35435;BME280;21556;55.782;37.528;2023-02-21T04:12:53;97429.09;;;-11.20;100.00
35435;BME280;21556;55.782;37.528;2023-02-21T04:15:19;97428.81;;;-11.25;100.00
35435;BME280;21556;55.782;37.528;2023-02-21T04:17:45;97418.19;;;-11.19;100.00
35435;BME280;21556;55.782;37.528;2023-02-21T04:20:13;97423.47;;;-11.03;100.00
35435;BME280;21556;55.782;37.528;2023-02-21T04:22:45;97433.47;;;-11.31;100.00
35435;BME280;21556;55.782;37.528;2023-02-21T04:25:11;97427.06;;;-10.99;100.00
35435;BME280;21556;55.782;37.528;2023-02-21T04:27:52;97435.72;;;-11.35;100.00
35435;BME280;21556;55.782;37.528;2023-02-21T04:30:18;97436.59;;;-11.35;100.00
35435;BME280;21556;55.782;37.528;2023-02-21T04:32:44;97438.19;;;-11.75;100.00
35435;BME280;21556;55.782;37.528;2023-02-21T04:35:15;97440.75;;;-11.49;100.00
35435;BME280;21556;55.782;37.528;2023-02-21T04:37:42;97440.94;;;-11.59;100.00
35435;BME280;21556;55.782;37.528;2023-02-21T04:40:10;97445.56;;;-12.17;100.00
35435;BME280;21556;55.782;37.528;2023-02-21T04:42:37;97447.50;;;-11.88;100.00
35435;BME280;21556;55.782;37.528;2023-02-21T04:45:03;97450.03;;;-11.74;100.00
35435;BME280;21556;55.782;37.528;2023-02-21T04:47:29;97456.94;;;-11.85;100.00
35435;BME280;21556;55.782;37.528;2023-02-21T04:49:55;97457.00;;;-12.22;100.00
35435;BME280;21556;55.782;37.528;2023-02-21T04:52:21;97461.25;;;-12.34;100.00
35435;BME280;21556;55.782;37.528;2023-02-21T04:54:47;97459.41;;;-12.11;100.00
35435;BME280;21556;55.782;37.528;2023-02-21T04:57:14;97460.56;;;-12.31;100.00
35435;BME280;21556;55.782;37.528;2023-02-21T04:59:40;97458.91;;;-12.06;100.00
35435;BME280;21556;55.782;37.528;2023-02-21T05:02:08;97464.59;;;-11.97;100.00
35435;BME280;21556;55.782;37.528;2023-02-21T05:04:35;97466.84;;;-12.01;100.00
35435;BME280;21556;55.782;37.528;2023-02-21T05:07:01;97466.16;;;-12.35;100.00
35435;BME280;21556;55.782;37.528;2023-02-21T05:09:27;97461.94;;;-12.11;100.00
35435;BME280;21556;55.782;37.528;2023-02-21T05:11:52;97460.94;;;-12.14;100.00
35435;BME280;21556;55.782;37.528;2023-02-21T05:14:18;97455.44;;;-11.95;100.00
35435;BME280;21556;55.782;37.528;2023-02-21T05:16:44;97464.97;;;-12.04;100.00
35435;BME280;21556;55.782;37.528;2023-02-21T05:19:10;97461.41;;;-12.19;100.00
35435;BME280;21556;55.782;37.528;2023-02-21T05:21:36;97462.75;;;-11.99;100.00
35435;BME280;21556;55.782;37.528;2023-02-21T05:24:06;97463.34;;;-11.77;100.00
35435;BME280;21556;55.782;37.528;2023-02-21T05:26:35;97461.94;;;-11.86;100.00
35435;BME280;21556;55.782;37.528;2023-02-21T05:29:03;97461.72;;;-11.90;100.00
35435;BME280;21556;55.782;37.528;2023-02-21T05:31:29;97457.47;;;-11.64;100.00
35435;BME280;21556;55.782;37.528;2023-02-21T05:33:56;97471.34;;;-12.34;100.00
35435;BME280;21556;55.782;37.528;2023-02-21T05:36:22;97465.91;;;-11.90;100.00
35435;BME280;21556;55.782;37.528;2023-02-21T05:38:53;97469.78;;;-11.82;100.00
35435;BME280;21556;55.782;37.528;2023-02-21T05:41:20;97472.59;;;-12.16;100.00
35435;BME280;21556;55.782;37.528;2023-02-21T05:43:47;97463.81;;;-11.57;100.00
35435;BME280;21556;55.782;37.528;2023-02-21T05:46:31;97464.13;;;-11.53;100.00
35435;BME280;21556;55.782;37.528;2023-02-21T05:48:59;97471.53;;;-11.94;100.00
35435;BME280;21556;55.782;37.528;2023-02-21T05:51:26;97475.03;;;-11.92;100.00
35435;BME280;21556;55.782;37.528;2023-02-21T05:53:53;97467.34;;;-11.80;100.00
35435;BME280;21556;55.782;37.528;2023-02-21T05:56:20;97468.72;;;-11.47;100.00
35435;BME280;21556;55.782;37.528;2023-02-21T05:58:46;97468.50;;;-11.37;100.00
35435;BME280;21556;55.782;37.528;2023-02-21T06:01:12;97468.94;;;-11.18;100.00
35435;BME280;21556;55.782;37.528;2023-02-21T06:03:38;97463.75;;;-11.46;100.00
35435;BME280;21556;55.782;37.528;2023-02-21T06:06:05;97468.00;;;-11.58;100.00
35435;BME280;21556;55.782;37.528;2023-02-21T06:08:31;97463.59;;;-10.96;100.00
35435;BME280;21556;55.782;37.528;2023-02-21T06:10:57;97474.06;;;-10.50;100.00
35435;BME280;21556;55.782;37.528;2023-02-21T06:13:22;97461.34;;;-10.08;100.00
35435;BME280;21556;55.782;37.528;2023-02-21T06:15:48;97462.94;;;-9.38;100.00
35435;BME280;21556;55.782;37.528;2023-02-21T06:18:15;97455.16;;;-8.97;100.00
35435;BME280;21556;55.782;37.528;2023-02-21T06:20:41;97463.81;;;-9.23;100.00
35435;BME280;21556;55.782;37.528;2023-02-21T06:23:07;97462.75;;;-8.82;100.00
35435;BME280;21556;55.782;37.528;2023-02-21T06:25:33;97451.34;;;-7.61;100.00
35435;BME280;21556;55.782;37.528;2023-02-21T06:27:59;97450.84;;;-7.70;100.00
35435;BME280;21556;55.782;37.528;2023-02-21T06:30:25;97456.75;;;-7.71;100.00
35435;BME280;21556;55.782;37.528;2023-02-21T06:32:51;97459.59;;;-8.30;100.00
35435;BME280;21556;55.782;37.528;2023-02-21T06:35:17;97463.50;;;-8.53;100.00
35435;BME280;21556;55.782;37.528;2023-02-21T06:37:44;97461.81;;;-9.13;100.00
35435;BME280;21556;55.782;37.528;2023-02-21T06:40:10;97467.16;;;-9.09;100.00
35435;BME280;21556;55.782;37.528;2023-02-21T06:42:36;97466.13;;;-8.66;100.00
35435;BME280;21556;55.782;37.528;2023-02-21T06:45:02;97460.47;;;-8.13;100.00
35435;BME280;21556;55.782;37.528;2023-02-21T06:47:29;97466.84;;;-8.38;100.00
35435;BME280;21556;55.782;37.528;2023-02-21T06:49:55;97461.09;;;-8.17;100.00
35435;BME280;21556;55.782;37.528;2023-02-21T06:52:21;97463.19;;;-7.61;100.00
35435;BME280;21556;55.782;37.528;2023-02-21T06:54:51;97471.63;;;-8.28;100.00
35435;BME280;21556;55.782;37.528;2023-02-21T06:57:16;97471.31;;;-8.01;100.00
35435;BME280;21556;55.782;37.528;2023-02-21T06:59:43;97457.97;;;-6.60;100.00
35435;BME280;21556;55.782;37.528;2023-02-21T07:02:17;97454.00;;;-7.41;100.00
35435;BME280;21556;55.782;37.528;2023-02-21T07:04:43;97457.00;;;-7.83;100.00
35435;BME280;21556;55.782;37.528;2023-02-21T07:07:09;97467.53;;;-8.57;100.00
35435;BME280;21556;55.782;37.528;2023-02-21T07:09:35;97470.88;;;-8.73;100.00
35435;BME280;21556;55.782;37.528;2023-02-21T07:12:01;97466.84;;;-7.56;100.00
35435;BME280;21556;55.782;37.528;2023-02-21T07:14:28;97469.25;;;-7.92;100.00
35435;BME280;21556;55.782;37.528;2023-02-21T07:16:54;97474.44;;;-8.54;100.00
35435;BME280;21556;55.782;37.528;2023-02-21T07:19:20;97471.81;;;-8.56;100.00
35435;BME280;21556;55.782;37.528;2023-02-21T07:21:46;97485.31;;;-8.57;100.00
35435;BME280;21556;55.782;37.528;2023-02-21T07:24:12;97472.94;;;-9.26;100.00
35435;BME280;21556;55.782;37.528;2023-02-21T07:26:39;97490.09;;;-9.95;100.00
35435;BME280;21556;55.782;37.528;2023-02-21T07:29:05;97485.28;;;-9.62;100.00
35435;BME280;21556;55.782;37.528;2023-02-21T07:31:31;97490.31;;;-10.05;100.00
35435;BME280;21556;55.782;37.528;2023-02-21T07:33:57;97496.75;;;-9.82;100.00
35435;BME280;21556;55.782;37.528;2023-02-21T07:36:23;97496.75;;;-10.10;100.00
35435;BME280;21556;55.782;37.528;2023-02-21T07:38:49;97496.72;;;-9.97;100.00
35435;BME280;21556;55.782;37.528;2023-02-21T07:41:18;97489.41;;;-9.77;100.00
35435;BME280;21556;55.782;37.528;2023-02-21T07:43:44;97488.25;;;-9.54;100.00
35435;BME280;21556;55.782;37.528;2023-02-21T07:46:11;97488.16;;;-9.56;100.00
35435;BME280;21556;55.782;37.528;2023-02-21T07:48:37;97486.59;;;-9.54;100.00
35435;BME280;21556;55.782;37.528;2023-02-21T07:51:03;97485.59;;;-9.56;100.00
35435;BME280;21556;55.782;37.528;2023-02-21T07:53:28;97493.59;;;-9.50;100.00
35435;BME280;21556;55.782;37.528;2023-02-21T07:55:54;97487.91;;;-9.31;100.00
35435;BME280;21556;55.782;37.528;2023-02-21T07:58:20;97481.53;;;-9.24;100.00
35435;BME280;21556;55.782;37.528;2023-02-21T08:00:48;97495.88;;;-9.54;100.00
35435;BME280;21556;55.782;37.528;2023-02-21T08:03:14;97496.59;;;-9.27;100.00
35435;BME280;21556;55.782;37.528;2023-02-21T08:05:40;97497.88;;;-9.04;100.00
35435;BME280;21556;55.782;37.528;2023-02-21T08:08:07;97495.09;;;-9.09;100.00
35435;BME280;21556;55.782;37.528;2023-02-21T08:10:33;97496.91;;;-8.77;100.00
35435;BME280;21556;55.782;37.528;2023-02-21T08:12:59;97486.69;;;-8.78;100.00
35435;BME280;21556;55.782;37.528;2023-02-21T08:15:25;97487.75;;;-8.27;100.00
35435;BME280;21556;55.782;37.528;2023-02-21T08:17:51;97488.56;;;-8.12;100.00
35435;BME280;21556;55.782;37.528;2023-02-21T08:20:18;97486.09;;;-7.78;100.00
35435;BME280;21556;55.782;37.528;2023-02-21T08:22:44;97485.50;;;-6.89;100.00
35435;BME280;21556;55.782;37.528;2023-02-21T08:25:11;97487.59;;;-7.48;100.00
35435;BME280;21556;55.782;37.528;2023-02-21T08:27:43;97490.00;;;-7.35;100.00
35435;BME280;21556;55.782;37.528;2023-02-21T08:30:10;97489.25;;;-6.64;100.00
35435;BME280;21556;55.782;37.528;2023-02-21T08:32:37;97490.09;;;-7.16;100.00
35435;BME280;21556;55.782;37.528;2023-02-21T08:35:03;97486.03;;;-6.78;100.00
35435;BME280;21556;55.782;37.528;2023-02-21T08:37:32;97484.19;;;-6.27;100.00
35435;BME280;21556;55.782;37.528;2023-02-21T08:40:02;97489.16;;;-6.48;100.00
35435;BME280;21556;55.782;37.528;2023-02-21T08:42:30;97482.47;;;-6.46;100.00
35435;BME280;21556;55.782;37.528;2023-02-21T08:44:55;97485.03;;;-6.09;100.00
35435;BME280;21556;55.782;37.528;2023-02-21T08:47:22;97489.72;;;-5.60;100.00
35435;BME280;21556;55.782;37.528;2023-02-21T08:49:48;97494.25;;;-5.93;95.82
35435;BME280;21556;55.782;37.528;2023-02-21T08:52:15;97485.78;;;-5.92;98.97
35435;BME280;21556;55.782;37.528;2023-02-21T08:54:42;97494.00;;;-5.99;99.90
35435;BME280;21556;55.782;37.528;2023-02-21T08:57:08;97498.34;;;-5.96;100.00
35435;BME280;21556;55.782;37.528;2023-02-21T08:59:34;97491.81;;;-6.09;91.87
35435;BME280;21556;55.782;37.528;2023-02-21T09:02:02;97490.41;;;-5.83;91.20
35435;BME280;21556;55.782;37.528;2023-02-21T09:04:28;97483.75;;;-5.41;100.00
35435;BME280;21556;55.782;37.528;2023-02-21T09:06:54;97486.22;;;-5.81;98.32
35435;BME280;21556;55.782;37.528;2023-02-21T09:09:21;97483.22;;;-5.72;93.74
35435;BME280;21556;55.782;37.528;2023-02-21T09:11:47;97485.41;;;-5.41;89.23
35435;BME280;21556;55.782;37.528;2023-02-21T09:14:15;97482.81;;;-5.43;86.81
35435;BME280;21556;55.782;37.528;2023-02-21T09:16:41;97485.88;;;-5.30;82.63
35435;BME280;21556;55.782;37.528;2023-02-21T09:19:08;97485.16;;;-5.28;86.86
35435;BME280;21556;55.782;37.528;2023-02-21T09:21:34;97490.75;;;-5.37;80.90
35435;BME280;21556;55.782;37.528;2023-02-21T09:24:01;97487.66;;;-5.09;85.69
35435;BME280;21556;55.782;37.528;2023-02-21T09:26:30;97484.75;;;-4.97;83.09
35435;BME280;21556;55.782;37.528;2023-02-21T09:28:59;97483.56;;;-4.84;84.90
35435;BME280;21556;55.782;37.528;2023-02-21T09:31:24;97479.19;;;-4.66;79.90
35435;BME280;21556;55.782;37.528;2023-02-21T09:33:50;97485.31;;;-5.04;78.71
35435;BME280;21556;55.782;37.528;2023-02-21T09:36:16;97488.44;;;-4.69;88.31
35435;BME280;21556;55.782;37.528;2023-02-21T09:38:51;97476.41;;;-4.28;87.17
35435;BME280;21556;55.782;37.528;2023-02-21T09:41:17;97479.03;;;-4.27;79.48
35435;BME280;21556;55.782;37.528;2023-02-21T09:43:46;97484.00;;;-4.73;78.85
35435;BME280;21556;55.782;37.528;2023-02-21T09:48:45;97486.50;;;-5.36;82.66
35435;BME280;21556;55.782;37.528;2023-02-21T09:51:12;97487.50;;;-5.91;80.86
35435;BME280;21556;55.782;37.528;2023-02-21T09:53:42;97477.75;;;-5.22;84.35
35435;BME280;21556;55.782;37.528;2023-02-21T09:58:43;97488.69;;;-4.84;79.52
35435;BME280;21556;55.782;37.528;2023-02-21T10:06:58;97477.03;;;-3.89;75.52
35435;BME280;21556;55.782;37.528;2023-02-21T10:12:23;97482.19;;;-4.55;71.01
35435;BME280;21556;55.782;37.528;2023-02-21T10:15:14;97491.94;;;-4.88;71.29
35435;BME280;21556;55.782;37.528;2023-02-21T10:20:38;97485.00;;;-4.49;69.64
35435;BME280;21556;55.782;37.528;2023-02-21T10:23:18;97486.94;;;-4.21;79.06
35435;BME280;21556;55.782;37.528;2023-02-21T10:25:46;97489.22;;;-4.28;67.54
35435;BME280;21556;55.782;37.528;2023-02-21T10:28:21;97495.06;;;-4.74;74.44
35435;BME280;21556;55.782;37.528;2023-02-21T10:30:48;97497.78;;;-4.28;69.67
35435;BME280;21556;55.782;37.528;2023-02-21T10:33:16;97499.19;;;-4.14;76.49
35435;BME280;21556;55.782;37.528;2023-02-21T10:35:42;97501.66;;;-4.15;80.47
35435;BME280;21556;55.782;37.528;2023-02-21T10:38:12;97498.34;;;-3.90;68.70
35435;BME280;21556;55.782;37.528;2023-02-21T10:40:52;97506.28;;;-3.84;69.41
35435;BME280;21556;55.782;37.528;2023-02-21T10:43:32;97512.94;;;-4.32;69.62
35435;BME280;21556;55.782;37.528;2023-02-21T10:46:26;97513.13;;;-4.91;74.74
35435;BME280;21556;55.782;37.528;2023-02-21T10:48:55;97521.91;;;-5.05;79.86
35435;BME280;21556;55.782;37.528;2023-02-21T10:51:32;97523.38;;;-4.28;71.54
35435;BME280;21556;55.782;37.528;2023-02-21T10:54:18;97527.63;;;-4.28;71.75
35435;BME280;21556;55.782;37.528;2023-02-21T10:56:55;97525.72;;;-4.12;63.68
35435;BME280;21556;55.782;37.528;2023-02-21T10:59:40;97529.00;;;-4.14;64.20
35435;BME280;21556;55.782;37.528;2023-02-21T11:02:32;97532.31;;;-4.60;65.36
35435;BME280;21556;55.782;37.528;2023-02-21T11:05:12;97538.00;;;-4.46;72.68
35435;BME280;21556;55.782;37.528;2023-02-21T11:07:39;97538.91;;;-4.23;65.27
35435;BME280;21556;55.782;37.528;2023-02-21T11:10:45;97543.28;;;-4.63;63.64
35435;BME280;21556;55.782;37.528;2023-02-21T11:13:15;97547.56;;;-5.62;76.83
35435;BME280;21556;55.782;37.528;2023-02-21T11:15:44;97546.38;;;-5.12;82.82
35435;BME280;21556;55.782;37.528;2023-02-21T11:18:24;97546.47;;;-4.89;88.69
35435;BME280;21556;55.782;37.528;2023-02-21T11:20:51;97543.41;;;-4.60;79.10
35435;BME280;21556;55.782;37.528;2023-02-21T11:23:26;97544.72;;;-4.90;73.91
35435;BME280;21556;55.782;37.528;2023-02-21T11:26:04;97548.22;;;-5.27;85.70
35435;BME280;21556;55.782;37.528;2023-02-21T11:28:39;97556.13;;;-5.22;85.09
35435;BME280;21556;55.782;37.528;2023-02-21T11:31:31;97546.47;;;-5.09;87.39
35435;BME280;21556;55.782;37.528;2023-02-21T11:34:00;97562.69;;;-5.47;100.00
35435;BME280;21556;55.782;37.528;2023-02-21T11:36:29;97558.75;;;-5.97;98.39
35435;BME280;21556;55.782;37.528;2023-02-21T11:43:58;97571.41;;;-5.81;100.00
35435;BME280;21556;55.782;37.528;2023-02-21T11:46:35;97580.19;;;-5.93;100.00
35435;BME280;21556;55.782;37.528;2023-02-21T11:49:09;97576.84;;;-5.92;100.00
35435;BME280;21556;55.782;37.528;2023-02-21T11:51:48;97577.50;;;-5.59;100.00
35435;BME280;21556;55.782;37.528;2023-02-21T11:54:14;97582.63;;;-5.77;100.00
35435;BME280;21556;55.782;37.528;2023-02-21T12:00:14;97587.66;;;-6.34;100.00
35435;BME280;21556;55.782;37.528;2023-02-21T12:08:51;97597.00;;;-6.16;100.00
35435;BME280;21556;55.782;37.528;2023-02-21T12:14:13;97605.22;;;-6.22;100.00
35435;BME280;21556;55.782;37.528;2023-02-21T12:16:55;97600.47;;;-6.14;100.00
35435;BME280;21556;55.782;37.528;2023-02-21T12:20:06;97607.13;;;-6.00;100.00
35435;BME280;21556;55.782;37.528;2023-02-21T12:25:31;97611.91;;;-6.76;100.00
35435;BME280;21556;55.782;37.528;2023-02-21T12:28:40;97619.06;;;-6.52;100.00
35435;BME280;21556;55.782;37.528;2023-02-21T12:36:44;97626.75;;;-6.17;100.00
35435;BME280;21556;55.782;37.528;2023-02-21T12:39:22;97632.63;;;-6.18;100.00
35435;BME280;21556;55.782;37.528;2023-02-21T12:45:20;97634.63;;;-6.46;100.00
35435;BME280;21556;55.782;37.528;2023-02-21T12:50:35;97649.38;;;-6.41;100.00
35435;BME280;21556;55.782;37.528;2023-02-21T12:58:33;97667.31;;;-6.73;100.00
35435;BME280;21556;55.782;37.528;2023-02-21T13:01:13;97669.78;;;-6.75;100.00
35435;BME280;21556;55.782;37.528;2023-02-21T13:06:36;97666.97;;;-6.63;100.00
35435;BME280;21556;55.782;37.528;2023-02-21T13:09:14;97669.69;;;-6.60;100.00
35435;BME280;21556;55.782;37.528;2023-02-21T13:14:46;97684.06;;;-6.79;100.00
35435;BME280;21556;55.782;37.528;2023-02-21T13:17:15;97696.63;;;-6.82;100.00
35435;BME280;21556;55.782;37.528;2023-02-21T13:19:47;97699.34;;;-6.79;100.00
35435;BME280;21556;55.782;37.528;2023-02-21T13:28:29;97708.34;;;-7.18;100.00
35435;BME280;21556;55.782;37.528;2023-02-21T13:31:00;97717.75;;;-6.84;100.00
35435;BME280;21556;55.782;37.528;2023-02-21T13:33:41;97724.13;;;-6.60;100.00
35435;BME280;21556;55.782;37.528;2023-02-21T13:36:22;97722.94;;;-7.30;100.00
35435;BME280;21556;55.782;37.528;2023-02-21T13:41:33;97739.59;;;-8.12;100.00
35435;BME280;21556;55.782;37.528;2023-02-21T13:44:06;97738.44;;;-7.42;100.00
35435;BME280;21556;55.782;37.528;2023-02-21T14:08:39;97767.09;;;-7.46;100.00
35435;BME280;21556;55.782;37.528;2023-02-21T14:13:59;97789.19;;;-7.76;100.00
35435;BME280;21556;55.782;37.528;2023-02-21T14:16:35;97799.63;;;-7.86;100.00
35435;BME280;21556;55.782;37.528;2023-02-21T14:19:18;97802.78;;;-8.20;100.00
35435;BME280;21556;55.782;37.528;2023-02-21T14:21:47;97803.59;;;-7.91;100.00
35435;BME280;21556;55.782;37.528;2023-02-21T14:24:44;97801.28;;;-7.57;100.00
35435;BME280;21556;55.782;37.528;2023-02-21T14:29:43;97810.22;;;-7.49;100.00
35435;BME280;21556;55.782;37.528;2023-02-21T14:37:16;97832.28;;;-7.79;100.00
35435;BME280;21556;55.782;37.528;2023-02-21T14:39:50;97845.19;;;-8.34;100.00
35435;BME280;21556;55.782;37.528;2023-02-21T14:47:55;97858.00;;;-7.75;100.00
35435;BME280;21556;55.782;37.528;2023-02-21T15:01:54;97880.63;;;-8.37;100.00
35435;BME280;21556;55.782;37.528;2023-02-21T15:04:29;97882.97;;;-8.12;100.00
35435;BME280;21556;55.782;37.528;2023-02-21T15:07:14;97887.88;;;-8.15;100.00
35435;BME280;21556;55.782;37.528;2023-02-21T15:09:41;97891.28;;;-7.86;100.00
35435;BME280;21556;55.782;37.528;2023-02-21T15:12:25;97899.16;;;-7.82;100.00
35435;BME280;21556;55.782;37.528;2023-02-21T15:14:52;97899.78;;;-8.14;100.00
35435;BME280;21556;55.782;37.528;2023-02-21T15:17:21;97906.69;;;-8.26;100.00
35435;BME280;21556;55.782;37.528;2023-02-21T15:20:01;97911.69;;;-8.00;100.00
35435;BME280;21556;55.782;37.528;2023-02-21T15:22:27;97912.16;;;-7.77;100.00
35435;BME280;21556;55.782;37.528;2023-02-21T15:25:03;97926.19;;;-7.98;100.00
35435;BME280;21556;55.782;37.528;2023-02-21T15:27:50;97924.38;;;-7.86;100.00
35435;BME280;21556;55.782;37.528;2023-02-21T15:30:31;97924.44;;;-8.28;100.00
35435;BME280;21556;55.782;37.528;2023-02-21T15:35:33;97934.56;;;-8.14;100.00
35435;BME280;21556;55.782;37.528;2023-02-21T15:38:04;97930.91;;;-8.74;100.00